sensor_id;sensor_type;location;lat;lon;timestamp;P1;durP1;ratioP1;P2;durP2;ratioP2
46334;SDS011;32051;48.882;9.210;2022-07-09T00:01:25;5.32;;;2.25;;
46334;SDS011;32051;48.882;9.210;2022-07-09T00:03:51;8.20;;;2.28;;
46334;SDS011;32051;48.882;9.210;2022-07-09T00:06:17;8.02;;;2.95;;
46334;SDS011;32051;48.882;9.210;2022-07-09T00:08:43;4.25;;;2.00;;
46334;SDS011;32051;48.882;9.210;2022-07-09T00:11:09;7.53;;;2.00;;
46334;SDS011;32051;48.882;9.210;2022-07-09T00:13:35;6.53;;;2.47;;
46334;SDS011;32051;48.882;9.210;2022-07-09T00:16:01;5.82;;;2.63;;
46334;SDS011;32051;48.882;9.210;2022-07-09T00:18:28;7.07;;;2.05;;
46334;SDS011;32051;48.882;9.210;2022-07-09T00:20:54;6.32;;;2.17;;
46334;SDS011;32051;48.882;9.210;2022-07-09T00:23:20;2.58;;;1.92;;
46334;SDS011;32051;48.882;9.210;2022-07-09T00:25:46;2.85;;;2.30;;
46334;SDS011;32051;48.882;9.210;2022-07-09T00:28:12;3.05;;;2.40;;
46334;SDS011;32051;48.882;9.210;2022-07-09T00:30:39;7.63;;;2.90;;
46334;SDS011;32051;48.882;9.210;2022-07-09T00:33:06;6.60;;;2.45;;
46334;SDS011;32051;48.882;9.210;2022-07-09T00:35:32;7.75;;;3.22;;
46334;SDS011;32051;48.882;9.210;2022-07-09T00:37:58;5.78;;;2.20;;
46334;SDS011;32051;48.882;9.210;2022-07-09T00:40:24;6.07;;;2.17;;
46334;SDS011;32051;48.882;9.210;2022-07-09T00:42:50;10.27;;;2.75;;
46334;SDS011;32051;48.882;9.210;2022-07-09T00:45:16;7.38;;;2.28;;
46334;SDS011;32051;48.882;9.210;2022-07-09T00:47:43;8.73;;;3.20;;
46334;SDS011;32051;48.882;9.210;2022-07-09T00:50:09;4.93;;;2.22;;
46334;SDS011;32051;48.882;9.210;2022-07-09T00:52:35;18.88;;;4.43;;
46334;SDS011;32051;48.882;9.210;2022-07-09T00:55:04;8.65;;;3.13;;
46334;SDS011;32051;48.882;9.210;2022-07-09T00:57:31;4.00;;;2.70;;
46334;SDS011;32051;48.882;9.210;2022-07-09T00:59:58;2.88;;;2.28;;
46334;SDS011;32051;48.882;9.210;2022-07-09T01:02:24;5.13;;;3.15;;
46334;SDS011;32051;48.882;9.210;2022-07-09T01:04:50;4.57;;;2.67;;
46334;SDS011;32051;48.882;9.210;2022-07-09T01:07:17;4.88;;;2.42;;
46334;SDS011;32051;48.882;9.210;2022-07-09T01:09:43;4.82;;;2.35;;
46334;SDS011;32051;48.882;9.210;2022-07-09T01:12:09;2.90;;;2.50;;
46334;SDS011;32051;48.882;9.210;2022-07-09T01:14:35;7.53;;;2.25;;
46334;SDS011;32051;48.882;9.210;2022-07-09T01:17:03;9.23;;;2.95;;
46334;SDS011;32051;48.882;9.210;2022-07-09T01:19:30;4.43;;;2.10;;
46334;SDS011;32051;48.882;9.210;2022-07-09T01:21:56;9.88;;;3.10;;
46334;SDS011;32051;48.882;9.210;2022-07-09T01:24:23;7.97;;;2.80;;
46334;SDS011;32051;48.882;9.210;2022-07-09T01:26:49;5.72;;;2.88;;
46334;SDS011;32051;48.882;9.210;2022-07-09T01:29:15;6.95;;;3.88;;
46334;SDS011;32051;48.882;9.210;2022-07-09T01:31:41;10.52;;;2.75;;
46334;SDS011;32051;48.882;9.210;2022-07-09T01:34:07;5.22;;;2.50;;
46334;SDS011;32051;48.882;9.210;2022-07-09T01:36:34;3.05;;;2.30;;
46334;SDS011;32051;48.882;9.210;2022-07-09T01:39:00;8.65;;;3.45;;
46334;SDS011;32051;48.882;9.210;2022-07-09T01:41:26;4.90;;;3.55;;
46334;SDS011;32051;48.882;9.210;2022-07-09T01:43:52;4.88;;;2.80;;
46334;SDS011;32051;48.882;9.210;2022-07-09T01:46:18;4.18;;;2.38;;
46334;SDS011;32051;48.882;9.210;2022-07-09T01:48:44;5.25;;;2.38;;
46334;SDS011;32051;48.882;9.210;2022-07-09T01:51:11;3.90;;;2.33;;
46334;SDS011;32051;48.882;9.210;2022-07-09T01:53:38;8.63;;;2.53;;
46334;SDS011;32051;48.882;9.210;2022-07-09T01:56:08;6.18;;;3.15;;
46334;SDS011;32051;48.882;9.210;2022-07-09T01:58:36;6.10;;;2.40;;
46334;SDS011;32051;48.882;9.210;2022-07-09T02:01:02;16.95;;;3.45;;
46334;SDS011;32051;48.882;9.210;2022-07-09T02:03:29;2.92;;;2.38;;
46334;SDS011;32051;48.882;9.210;2022-07-09T02:05:55;5.75;;;2.10;;
46334;SDS011;32051;48.882;9.210;2022-07-09T02:08:22;7.60;;;2.13;;
46334;SDS011;32051;48.882;9.210;2022-07-09T02:10:48;5.95;;;3.33;;
46334;SDS011;32051;48.882;9.210;2022-07-09T02:13:17;4.78;;;2.42;;
46334;SDS011;32051;48.882;9.210;2022-07-09T02:15:44;12.93;;;2.20;;
46334;SDS011;32051;48.882;9.210;2022-07-09T02:18:10;3.90;;;2.30;;
46334;SDS011;32051;48.882;9.210;2022-07-09T02:20:37;2.95;;;2.65;;
46334;SDS011;32051;48.882;9.210;2022-07-09T02:23:03;4.50;;;2.10;;
46334;SDS011;32051;48.882;9.210;2022-07-09T02:25:29;5.20;;;2.15;;
46334;SDS011;32051;48.882;9.210;2022-07-09T02:27:55;4.40;;;2.10;;
46334;SDS011;32051;48.882;9.210;2022-07-09T02:30:21;3.25;;;2.42;;
46334;SDS011;32051;48.882;9.210;2022-07-09T02:32:47;8.07;;;2.25;;
46334;SDS011;32051;48.882;9.210;2022-07-09T02:35:14;4.15;;;2.00;;
46334;SDS011;32051;48.882;9.210;2022-07-09T02:37:40;7.88;;;2.30;;
46334;SDS011;32051;48.882;9.210;2022-07-09T02:40:07;2.13;;;2.00;;
46334;SDS011;32051;48.882;9.210;2022-07-09T02:42:33;10.63;;;3.40;;
46334;SDS011;32051;48.882;9.210;2022-07-09T02:45:01;6.13;;;3.00;;
46334;SDS011;32051;48.882;9.210;2022-07-09T02:47:27;4.57;;;2.85;;
46334;SDS011;32051;48.882;9.210;2022-07-09T02:49:54;6.15;;;3.47;;
46334;SDS011;32051;48.882;9.210;2022-07-09T02:52:21;16.60;;;3.03;;
46334;SDS011;32051;48.882;9.210;2022-07-09T02:54:47;8.70;;;2.47;;
46334;SDS011;32051;48.882;9.210;2022-07-09T02:57:13;5.60;;;2.70;;
46334;SDS011;32051;48.882;9.210;2022-07-09T02:59:39;3.85;;;3.08;;
46334;SDS011;32051;48.882;9.210;2022-07-09T03:02:05;8.35;;;4.68;;
46334;SDS011;32051;48.882;9.210;2022-07-09T03:04:31;6.93;;;3.08;;
46334;SDS011;32051;48.882;9.210;2022-07-09T03:06:57;11.63;;;2.92;;
46334;SDS011;32051;48.882;9.210;2022-07-09T03:09:23;6.25;;;2.72;;
46334;SDS011;32051;48.882;9.210;2022-07-09T03:11:50;4.47;;;2.63;;
46334;SDS011;32051;48.882;9.210;2022-07-09T03:14:16;8.55;;;3.08;;
46334;SDS011;32051;48.882;9.210;2022-07-09T03:16:42;3.33;;;3.00;;
46334;SDS011;32051;48.882;9.210;2022-07-09T03:19:08;6.43;;;3.45;;
46334;SDS011;32051;48.882;9.210;2022-07-09T03:21:34;5.20;;;2.85;;
46334;SDS011;32051;48.882;9.210;2022-07-09T03:24:00;6.50;;;3.60;;
46334;SDS011;32051;48.882;9.210;2022-07-09T03:26:26;4.40;;;2.80;;
46334;SDS011;32051;48.882;9.210;2022-07-09T03:28:53;6.15;;;2.67;;
46334;SDS011;32051;48.882;9.210;2022-07-09T03:31:19;3.00;;;2.58;;
46334;SDS011;32051;48.882;9.210;2022-07-09T03:33:45;5.82;;;2.88;;
46334;SDS011;32051;48.882;9.210;2022-07-09T03:36:11;4.22;;;2.33;;
46334;SDS011;32051;48.882;9.210;2022-07-09T03:38:37;6.22;;;2.63;;
46334;SDS011;32051;48.882;9.210;2022-07-09T03:41:03;9.05;;;3.25;;
46334;SDS011;32051;48.882;9.210;2022-07-09T03:43:29;11.75;;;3.75;;
46334;SDS011;32051;48.882;9.210;2022-07-09T03:45:56;7.70;;;3.00;;
46334;SDS011;32051;48.882;9.210;2022-07-09T03:48:22;4.90;;;2.88;;
46334;SDS011;32051;48.882;9.210;2022-07-09T03:50:48;9.13;;;2.95;;
46334;SDS011;32051;48.882;9.210;2022-07-09T03:53:14;8.70;;;3.45;;
46334;SDS011;32051;48.882;9.210;2022-07-09T03:55:40;4.57;;;3.33;;
46334;SDS011;32051;48.882;9.210;2022-07-09T03:58:06;7.57;;;3.65;;
46334;SDS011;32051;48.882;9.210;2022-07-09T04:00:32;4.97;;;3.22;;
46334;SDS011;32051;48.882;9.210;2022-07-09T04:02:58;8.75;;;3.05;;
46334;SDS011;32051;48.882;9.210;2022-07-09T04:05:24;5.53;;;3.17;;
46334;SDS011;32051;48.882;9.210;2022-07-09T04:07:50;3.50;;;2.88;;
46334;SDS011;32051;48.882;9.210;2022-07-09T04:10:17;8.57;;;2.70;;
46334;SDS011;32051;48.882;9.210;2022-07-09T04:12:43;5.28;;;2.67;;
46334;SDS011;32051;48.882;9.210;2022-07-09T04:15:09;13.32;;;3.00;;
46334;SDS011;32051;48.882;9.210;2022-07-09T04:17:35;4.10;;;2.67;;
46334;SDS011;32051;48.882;9.210;2022-07-09T04:20:01;5.13;;;2.20;;
46334;SDS011;32051;48.882;9.210;2022-07-09T04:22:28;6.80;;;2.47;;
46334;SDS011;32051;48.882;9.210;2022-07-09T04:24:54;3.10;;;2.35;;
46334;SDS011;32051;48.882;9.210;2022-07-09T04:27:20;4.32;;;3.30;;
46334;SDS011;32051;48.882;9.210;2022-07-09T04:29:46;5.32;;;3.75;;
46334;SDS011;32051;48.882;9.210;2022-07-09T04:32:12;8.40;;;3.03;;
46334;SDS011;32051;48.882;9.210;2022-07-09T04:34:40;4.03;;;2.33;;
46334;SDS011;32051;48.882;9.210;2022-07-09T04:37:06;3.97;;;2.38;;
46334;SDS011;32051;48.882;9.210;2022-07-09T04:39:32;4.38;;;2.50;;
46334;SDS011;32051;48.882;9.210;2022-07-09T04:41:58;7.82;;;2.35;;
46334;SDS011;32051;48.882;9.210;2022-07-09T04:44:24;20.17;;;2.72;;
46334;SDS011;32051;48.882;9.210;2022-07-09T04:46:51;5.30;;;3.13;;
46334;SDS011;32051;48.882;9.210;2022-07-09T04:49:17;5.22;;;2.92;;
46334;SDS011;32051;48.882;9.210;2022-07-09T04:51:43;5.25;;;2.90;;
46334;SDS011;32051;48.882;9.210;2022-07-09T04:54:09;10.70;;;2.95;;
46334;SDS011;32051;48.882;9.210;2022-07-09T04:56:35;3.33;;;2.80;;
46334;SDS011;32051;48.882;9.210;2022-07-09T04:59:01;6.43;;;2.88;;
46334;SDS011;32051;48.882;9.210;2022-07-09T05:01:28;10.93;;;2.67;;
46334;SDS011;32051;48.882;9.210;2022-07-09T05:03:55;3.17;;;2.88;;
46334;SDS011;32051;48.882;9.210;2022-07-09T05:06:21;11.43;;;2.80;;
46334;SDS011;32051;48.882;9.210;2022-07-09T05:08:47;10.38;;;3.08;;
46334;SDS011;32051;48.882;9.210;2022-07-09T05:11:13;3.05;;;2.75;;
46334;SDS011;32051;48.882;9.210;2022-07-09T05:13:39;4.57;;;2.88;;
46334;SDS011;32051;48.882;9.210;2022-07-09T05:16:06;10.23;;;3.47;;
46334;SDS011;32051;48.882;9.210;2022-07-09T05:18:33;4.18;;;3.17;;
46334;SDS011;32051;48.882;9.210;2022-07-09T05:20:59;10.68;;;3.22;;
46334;SDS011;32051;48.882;9.210;2022-07-09T05:23:25;3.85;;;3.10;;
46334;SDS011;32051;48.882;9.210;2022-07-09T05:25:51;4.40;;;2.65;;
46334;SDS011;32051;48.882;9.210;2022-07-09T05:28:18;9.70;;;3.40;;
46334;SDS011;32051;48.882;9.210;2022-07-09T05:30:44;10.65;;;2.75;;
46334;SDS011;32051;48.882;9.210;2022-07-09T05:33:10;7.68;;;2.92;;
46334;SDS011;32051;48.882;9.210;2022-07-09T05:35:36;9.13;;;2.85;;
46334;SDS011;32051;48.882;9.210;2022-07-09T05:38:02;11.95;;;2.67;;
46334;SDS011;32051;48.882;9.210;2022-07-09T05:40:29;16.92;;;3.00;;
46334;SDS011;32051;48.882;9.210;2022-07-09T05:42:55;6.00;;;3.17;;
46334;SDS011;32051;48.882;9.210;2022-07-09T05:45:21;6.90;;;3.88;;
46334;SDS011;32051;48.882;9.210;2022-07-09T05:47:47;16.02;;;3.42;;
46334;SDS011;32051;48.882;9.210;2022-07-09T05:50:13;4.55;;;2.63;;
46334;SDS011;32051;48.882;9.210;2022-07-09T05:52:39;5.88;;;2.88;;
46334;SDS011;32051;48.882;9.210;2022-07-09T05:55:05;5.97;;;2.88;;
46334;SDS011;32051;48.882;9.210;2022-07-09T05:57:31;5.93;;;3.00;;
46334;SDS011;32051;48.882;9.210;2022-07-09T05:59:58;6.55;;;3.10;;
46334;SDS011;32051;48.882;9.210;2022-07-09T06:02:24;11.55;;;3.22;;
46334;SDS011;32051;48.882;9.210;2022-07-09T06:04:50;8.90;;;3.90;;
46334;SDS011;32051;48.882;9.210;2022-07-09T06:07:16;12.00;;;2.72;;
46334;SDS011;32051;48.882;9.210;2022-07-09T06:09:43;5.22;;;2.67;;
46334;SDS011;32051;48.882;9.210;2022-07-09T06:12:09;5.32;;;2.45;;
46334;SDS011;32051;48.882;9.210;2022-07-09T06:14:36;8.77;;;3.30;;
46334;SDS011;32051;48.882;9.210;2022-07-09T06:17:02;6.93;;;2.88;;
46334;SDS011;32051;48.882;9.210;2022-07-09T06:19:32;5.05;;;3.13;;
46334;SDS011;32051;48.882;9.210;2022-07-09T06:21:58;8.00;;;2.30;;
46334;SDS011;32051;48.882;9.210;2022-07-09T06:24:24;10.48;;;2.58;;
46334;SDS011;32051;48.882;9.210;2022-07-09T06:26:50;8.23;;;2.28;;
46334;SDS011;32051;48.882;9.210;2022-07-09T06:29:16;19.60;;;3.33;;
46334;SDS011;32051;48.882;9.210;2022-07-09T06:31:42;5.50;;;2.22;;
46334;SDS011;32051;48.882;9.210;2022-07-09T06:34:09;2.42;;;2.00;;
46334;SDS011;32051;48.882;9.210;2022-07-09T06:36:37;5.07;;;1.77;;
46334;SDS011;32051;48.882;9.210;2022-07-09T06:39:03;6.22;;;2.92;;
46334;SDS011;32051;48.882;9.210;2022-07-09T06:41:47;6.85;;;1.95;;
46334;SDS011;32051;48.882;9.210;2022-07-09T06:44:14;7.30;;;1.42;;
46334;SDS011;32051;48.882;9.210;2022-07-09T06:46:40;4.18;;;2.10;;
46334;SDS011;32051;48.882;9.210;2022-07-09T06:49:06;6.10;;;2.17;;
46334;SDS011;32051;48.882;9.210;2022-07-09T06:51:32;4.38;;;2.35;;
46334;SDS011;32051;48.882;9.210;2022-07-09T06:53:58;5.20;;;2.38;;
46334;SDS011;32051;48.882;9.210;2022-07-09T06:56:24;4.55;;;2.50;;
46334;SDS011;32051;48.882;9.210;2022-07-09T06:58:50;8.38;;;2.00;;
46334;SDS011;32051;48.882;9.210;2022-07-09T07:01:17;4.00;;;1.75;;
46334;SDS011;32051;48.882;9.210;2022-07-09T07:03:43;3.28;;;2.00;;
46334;SDS011;32051;48.882;9.210;2022-07-09T07:06:09;8.18;;;1.65;;
46334;SDS011;32051;48.882;9.210;2022-07-09T07:08:35;8.43;;;2.22;;
46334;SDS011;32051;48.882;9.210;2022-07-09T07:11:01;3.88;;;1.90;;
46334;SDS011;32051;48.882;9.210;2022-07-09T07:13:27;5.85;;;2.03;;
46334;SDS011;32051;48.882;9.210;2022-07-09T07:15:53;8.57;;;2.15;;
46334;SDS011;32051;48.882;9.210;2022-07-09T07:18:19;1.95;;;1.40;;
46334;SDS011;32051;48.882;9.210;2022-07-09T07:20:45;5.90;;;1.95;;
46334;SDS011;32051;48.882;9.210;2022-07-09T07:23:11;10.85;;;2.03;;
46334;SDS011;32051;48.882;9.210;2022-07-09T07:25:38;4.93;;;1.60;;
46334;SDS011;32051;48.882;9.210;2022-07-09T07:28:04;1.83;;;1.30;;
46334;SDS011;32051;48.882;9.210;2022-07-09T07:30:31;6.82;;;2.28;;
46334;SDS011;32051;48.882;9.210;2022-07-09T07:33:00;4.80;;;1.77;;
46334;SDS011;32051;48.882;9.210;2022-07-09T07:35:26;16.15;;;2.55;;
46334;SDS011;32051;48.882;9.210;2022-07-09T07:37:53;5.65;;;2.00;;
46334;SDS011;32051;48.882;9.210;2022-07-09T07:40:19;12.23;;;2.00;;
46334;SDS011;32051;48.882;9.210;2022-07-09T07:42:45;12.65;;;1.70;;
46334;SDS011;32051;48.882;9.210;2022-07-09T07:45:11;7.82;;;1.48;;
46334;SDS011;32051;48.882;9.210;2022-07-09T07:47:37;8.07;;;1.45;;
46334;SDS011;32051;48.882;9.210;2022-07-09T07:50:04;3.55;;;1.67;;
46334;SDS011;32051;48.882;9.210;2022-07-09T07:52:30;2.08;;;1.83;;
46334;SDS011;32051;48.882;9.210;2022-07-09T07:54:56;6.35;;;2.10;;
46334;SDS011;32051;48.882;9.210;2022-07-09T07:57:22;9.23;;;2.70;;
46334;SDS011;32051;48.882;9.210;2022-07-09T07:59:49;11.55;;;1.67;;
46334;SDS011;32051;48.882;9.210;2022-07-09T08:02:15;1.52;;;1.15;;
46334;SDS011;32051;48.882;9.210;2022-07-09T08:04:41;6.60;;;1.48;;
46334;SDS011;32051;48.882;9.210;2022-07-09T08:07:07;5.22;;;1.95;;
46334;SDS011;32051;48.882;9.210;2022-07-09T08:09:33;2.80;;;1.15;;
46334;SDS011;32051;48.882;9.210;2022-07-09T08:12:02;6.45;;;1.92;;
46334;SDS011;32051;48.882;9.210;2022-07-09T08:14:28;5.40;;;1.52;;
46334;SDS011;32051;48.882;9.210;2022-07-09T08:16:54;3.17;;;1.50;;
46334;SDS011;32051;48.882;9.210;2022-07-09T08:19:20;3.22;;;2.00;;
46334;SDS011;32051;48.882;9.210;2022-07-09T08:21:46;3.92;;;1.70;;
46334;SDS011;32051;48.882;9.210;2022-07-09T08:24:12;10.25;;;1.60;;
46334;SDS011;32051;48.882;9.210;2022-07-09T08:26:38;2.55;;;1.48;;
46334;SDS011;32051;48.882;9.210;2022-07-09T08:29:04;5.63;;;1.73;;
46334;SDS011;32051;48.882;9.210;2022-07-09T08:31:31;3.47;;;1.45;;
46334;SDS011;32051;48.882;9.210;2022-07-09T08:33:57;1.95;;;1.33;;
46334;SDS011;32051;48.882;9.210;2022-07-09T08:36:23;1.88;;;1.35;;
46334;SDS011;32051;48.882;9.210;2022-07-09T08:38:49;4.47;;;1.42;;
46334;SDS011;32051;48.882;9.210;2022-07-09T08:41:15;1.85;;;1.17;;
46334;SDS011;32051;48.882;9.210;2022-07-09T08:43:44;0.85;;;0.80;;
46334;SDS011;32051;48.882;9.210;2022-07-09T08:46:14;2.20;;;0.80;;
46334;SDS011;32051;48.882;9.210;2022-07-09T08:48:40;4.43;;;0.93;;
46334;SDS011;32051;48.882;9.210;2022-07-09T08:51:08;4.78;;;0.73;;
46334;SDS011;32051;48.882;9.210;2022-07-09T08:53:34;2.20;;;0.85;;
46334;SDS011;32051;48.882;9.210;2022-07-09T08:56:00;4.63;;;1.77;;
46334;SDS011;32051;48.882;9.210;2022-07-09T08:58:26;2.33;;;1.52;;
46334;SDS011;32051;48.882;9.210;2022-07-09T09:00:52;5.00;;;1.30;;
46334;SDS011;32051;48.882;9.210;2022-07-09T09:03:18;12.55;;;1.00;;
46334;SDS011;32051;48.882;9.210;2022-07-09T09:05:45;10.65;;;1.15;;
46334;SDS011;32051;48.882;9.210;2022-07-09T09:08:25;2.47;;;0.88;;
46334;SDS011;32051;48.882;9.210;2022-07-09T09:10:51;6.50;;;0.82;;
46334;SDS011;32051;48.882;9.210;2022-07-09T09:13:18;0.95;;;0.65;;
46334;SDS011;32051;48.882;9.210;2022-07-09T09:15:44;3.35;;;1.00;;
46334;SDS011;32051;48.882;9.210;2022-07-09T09:18:10;5.78;;;1.90;;
46334;SDS011;32051;48.882;9.210;2022-07-09T09:20:37;6.13;;;1.70;;
46334;SDS011;32051;48.882;9.210;2022-07-09T09:23:04;5.28;;;1.83;;
46334;SDS011;32051;48.882;9.210;2022-07-09T09:25:36;2.00;;;1.10;;
46334;SDS011;32051;48.882;9.210;2022-07-09T09:28:02;11.48;;;1.55;;
46334;SDS011;32051;48.882;9.210;2022-07-09T09:30:29;12.77;;;1.38;;
46334;SDS011;32051;48.882;9.210;2022-07-09T09:32:59;4.32;;;1.35;;
46334;SDS011;32051;48.882;9.210;2022-07-09T09:35:26;7.43;;;1.48;;
46334;SDS011;32051;48.882;9.210;2022-07-09T09:37:52;7.85;;;2.10;;
46334;SDS011;32051;48.882;9.210;2022-07-09T09:40:18;2.78;;;1.33;;
46334;SDS011;32051;48.882;9.210;2022-07-09T09:42:45;7.72;;;1.15;;
46334;SDS011;32051;48.882;9.210;2022-07-09T09:45:11;2.42;;;0.70;;
46334;SDS011;32051;48.882;9.210;2022-07-09T09:47:48;1.65;;;0.82;;
46334;SDS011;32051;48.882;9.210;2022-07-09T09:50:19;4.90;;;0.80;;
46334;SDS011;32051;48.882;9.210;2022-07-09T09:52:46;1.10;;;0.45;;
46334;SDS011;32051;48.882;9.210;2022-07-09T09:55:13;3.50;;;1.05;;
46334;SDS011;32051;48.882;9.210;2022-07-09T09:57:39;4.82;;;1.05;;
46334;SDS011;32051;48.882;9.210;2022-07-09T10:00:06;4.75;;;1.30;;
46334;SDS011;32051;48.882;9.210;2022-07-09T10:02:38;1.40;;;0.70;;
46334;SDS011;32051;48.882;9.210;2022-07-09T10:05:04;1.55;;;0.68;;
46334;SDS011;32051;48.882;9.210;2022-07-09T10:07:30;4.75;;;0.65;;
46334;SDS011;32051;48.882;9.210;2022-07-09T10:09:58;2.90;;;0.73;;
46334;SDS011;32051;48.882;9.210;2022-07-09T10:12:25;1.67;;;0.63;;
46334;SDS011;32051;48.882;9.210;2022-07-09T10:14:52;2.03;;;0.77;;
46334;SDS011;32051;48.882;9.210;2022-07-09T10:17:19;2.30;;;0.82;;
46334;SDS011;32051;48.882;9.210;2022-07-09T10:22:18;2.03;;;0.80;;
46334;SDS011;32051;48.882;9.210;2022-07-09T10:24:45;2.10;;;0.70;;
46334;SDS011;32051;48.882;9.210;2022-07-09T10:27:14;1.45;;;0.50;;
46334;SDS011;32051;48.882;9.210;2022-07-09T10:29:53;2.30;;;0.80;;
46334;SDS011;32051;48.882;9.210;2022-07-09T10:37:41;1.42;;;1.27;;
46334;SDS011;32051;48.882;9.210;2022-07-09T10:40:08;2.88;;;0.82;;
46334;SDS011;32051;48.882;9.210;2022-07-09T10:42:35;1.45;;;0.65;;
46334;SDS011;32051;48.882;9.210;2022-07-09T10:45:01;3.03;;;0.77;;
46334;SDS011;32051;48.882;9.210;2022-07-09T10:47:37;1.95;;;0.85;;
46334;SDS011;32051;48.882;9.210;2022-07-09T10:50:04;1.88;;;0.68;;
46334;SDS011;32051;48.882;9.210;2022-07-09T10:52:30;1.17;;;1.00;;
46334;SDS011;32051;48.882;9.210;2022-07-09T10:54:56;3.25;;;0.70;;
46334;SDS011;32051;48.882;9.210;2022-07-09T10:57:22;3.97;;;1.08;;
46334;SDS011;32051;48.882;9.210;2022-07-09T10:59:49;1.98;;;0.85;;
46334;SDS011;32051;48.882;9.210;2022-07-09T11:02:21;1.38;;;0.90;;
46334;SDS011;32051;48.882;9.210;2022-07-09T11:04:48;4.60;;;0.77;;
46334;SDS011;32051;48.882;9.210;2022-07-09T11:07:19;4.75;;;1.92;;
46334;SDS011;32051;48.882;9.210;2022-07-09T11:09:46;1.15;;;0.50;;
46334;SDS011;32051;48.882;9.210;2022-07-09T11:12:14;3.03;;;0.30;;
46334;SDS011;32051;48.882;9.210;2022-07-09T11:14:48;1.10;;;0.68;;
46334;SDS011;32051;48.882;9.210;2022-07-09T11:17:18;1.88;;;0.50;;
46334;SDS011;32051;48.882;9.210;2022-07-09T11:19:44;1.65;;;0.70;;
46334;SDS011;32051;48.882;9.210;2022-07-09T11:22:11;1.90;;;1.10;;
46334;SDS011;32051;48.882;9.210;2022-07-09T11:24:37;2.50;;;0.68;;
46334;SDS011;32051;48.882;9.210;2022-07-09T11:27:04;1.63;;;1.25;;
46334;SDS011;32051;48.882;9.210;2022-07-09T11:29:31;1.48;;;0.60;;
46334;SDS011;32051;48.882;9.210;2022-07-09T11:31:57;1.80;;;0.68;;
46334;SDS011;32051;48.882;9.210;2022-07-09T11:34:23;4.80;;;0.80;;
46334;SDS011;32051;48.882;9.210;2022-07-09T11:36:53;2.45;;;1.13;;
46334;SDS011;32051;48.882;9.210;2022-07-09T11:39:22;2.75;;;1.13;;
46334;SDS011;32051;48.882;9.210;2022-07-09T11:41:48;3.80;;;0.70;;
46334;SDS011;32051;48.882;9.210;2022-07-09T11:44:21;1.45;;;1.35;;
46334;SDS011;32051;48.882;9.210;2022-07-09T11:49:33;4.75;;;0.90;;
46334;SDS011;32051;48.882;9.210;2022-07-09T11:51:59;4.93;;;0.93;;
46334;SDS011;32051;48.882;9.210;2022-07-09T11:54:26;6.20;;;0.98;;
46334;SDS011;32051;48.882;9.210;2022-07-09T11:56:53;6.07;;;0.80;;
46334;SDS011;32051;48.882;9.210;2022-07-09T11:59:25;1.45;;;0.68;;
46334;SDS011;32051;48.882;9.210;2022-07-09T12:01:52;2.40;;;0.70;;
46334;SDS011;32051;48.882;9.210;2022-07-09T12:04:20;3.78;;;0.68;;
46334;SDS011;32051;48.882;9.210;2022-07-09T12:06:49;4.25;;;0.95;;
46334;SDS011;32051;48.882;9.210;2022-07-09T12:09:26;4.18;;;0.63;;
46334;SDS011;32051;48.882;9.210;2022-07-09T12:11:52;1.17;;;0.50;;
46334;SDS011;32051;48.882;9.210;2022-07-09T12:14:18;3.88;;;1.00;;
46334;SDS011;32051;48.882;9.210;2022-07-09T12:16:44;6.75;;;1.80;;
46334;SDS011;32051;48.882;9.210;2022-07-09T12:19:09;1.17;;;0.47;;
46334;SDS011;32051;48.882;9.210;2022-07-09T12:21:35;1.13;;;0.65;;
46334;SDS011;32051;48.882;9.210;2022-07-09T12:24:03;1.50;;;0.65;;
46334;SDS011;32051;48.882;9.210;2022-07-09T12:26:29;1.67;;;0.40;;
46334;SDS011;32051;48.882;9.210;2022-07-09T12:28:56;0.57;;;0.57;;
46334;SDS011;32051;48.882;9.210;2022-07-09T12:31:22;1.25;;;0.38;;
46334;SDS011;32051;48.882;9.210;2022-07-09T12:33:47;1.27;;;0.60;;
46334;SDS011;32051;48.882;9.210;2022-07-09T12:36:13;5.20;;;0.88;;
46334;SDS011;32051;48.882;9.210;2022-07-09T12:38:41;0.93;;;0.50;;
46334;SDS011;32051;48.882;9.210;2022-07-09T12:41:07;0.95;;;0.30;;
46334;SDS011;32051;48.882;9.210;2022-07-09T12:43:33;0.75;;;0.45;;
46334;SDS011;32051;48.882;9.210;2022-07-09T12:45:59;2.63;;;0.47;;
46334;SDS011;32051;48.882;9.210;2022-07-09T12:48:25;0.73;;;0.20;;
46334;SDS011;32051;48.882;9.210;2022-07-09T12:50:51;1.20;;;0.40;;
46334;SDS011;32051;48.882;9.210;2022-07-09T12:53:17;1.42;;;0.75;;
46334;SDS011;32051;48.882;9.210;2022-07-09T12:55:42;0.47;;;0.30;;
46334;SDS011;32051;48.882;9.210;2022-07-09T12:58:08;5.15;;;0.52;;
46334;SDS011;32051;48.882;9.210;2022-07-09T13:00:34;2.92;;;0.30;;
46334;SDS011;32051;48.882;9.210;2022-07-09T13:02:59;1.75;;;0.60;;
46334;SDS011;32051;48.882;9.210;2022-07-09T13:05:25;0.90;;;0.43;;
46334;SDS011;32051;48.882;9.210;2022-07-09T13:07:51;0.52;;;0.47;;
46334;SDS011;32051;48.882;9.210;2022-07-09T13:10:17;0.75;;;0.47;;
46334;SDS011;32051;48.882;9.210;2022-07-09T13:12:42;0.85;;;0.38;;
46334;SDS011;32051;48.882;9.210;2022-07-09T13:15:08;0.45;;;0.30;;
46334;SDS011;32051;48.882;9.210;2022-07-09T13:17:34;0.45;;;0.32;;
46334;SDS011;32051;48.882;9.210;2022-07-09T13:20:00;0.88;;;0.73;;
46334;SDS011;32051;48.882;9.210;2022-07-09T13:22:25;3.05;;;0.20;;
46334;SDS011;32051;48.882;9.210;2022-07-09T13:24:52;1.75;;;0.57;;
46334;SDS011;32051;48.882;9.210;2022-07-09T13:27:17;0.60;;;0.57;;
46334;SDS011;32051;48.882;9.210;2022-07-09T13:29:44;0.70;;;0.43;;
46334;SDS011;32051;48.882;9.210;2022-07-09T13:32:10;1.10;;;0.47;;
46334;SDS011;32051;48.882;9.210;2022-07-09T13:34:36;5.15;;;0.52;;
46334;SDS011;32051;48.882;9.210;2022-07-09T13:37:02;1.70;;;0.63;;
46334;SDS011;32051;48.882;9.210;2022-07-09T13:39:28;2.28;;;0.73;;
46334;SDS011;32051;48.882;9.210;2022-07-09T13:41:54;4.72;;;0.85;;
46334;SDS011;32051;48.882;9.210;2022-07-09T13:44:20;0.85;;;0.85;;
46334;SDS011;32051;48.882;9.210;2022-07-09T13:46:45;2.72;;;0.60;;
46334;SDS011;32051;48.882;9.210;2022-07-09T13:49:11;1.25;;;0.43;;
46334;SDS011;32051;48.882;9.210;2022-07-09T13:51:37;1.70;;;0.75;;
46334;SDS011;32051;48.882;9.210;2022-07-09T13:54:02;2.60;;;0.75;;
46334;SDS011;32051;48.882;9.210;2022-07-09T13:56:29;3.47;;;0.60;;
46334;SDS011;32051;48.882;9.210;2022-07-09T13:58:55;1.30;;;0.50;;
46334;SDS011;32051;48.882;9.210;2022-07-09T14:01:21;1.25;;;0.93;;
46334;SDS011;32051;48.882;9.210;2022-07-09T14:03:47;0.40;;;0.40;;
46334;SDS011;32051;48.882;9.210;2022-07-09T14:06:12;3.28;;;0.47;;
46334;SDS011;32051;48.882;9.210;2022-07-09T14:08:38;3.33;;;1.25;;
46334;SDS011;32051;48.882;9.210;2022-07-09T14:11:04;2.38;;;0.70;;
46334;SDS011;32051;48.882;9.210;2022-07-09T14:13:30;2.97;;;0.50;;
46334;SDS011;32051;48.882;9.210;2022-07-09T14:15:56;0.77;;;0.63;;
46334;SDS011;32051;48.882;9.210;2022-07-09T14:18:23;2.15;;;0.57;;
46334;SDS011;32051;48.882;9.210;2022-07-09T14:20:49;1.77;;;0.60;;
46334;SDS011;32051;48.882;9.210;2022-07-09T14:23:15;0.60;;;0.60;;
46334;SDS011;32051;48.882;9.210;2022-07-09T14:25:41;3.40;;;0.63;;
46334;SDS011;32051;48.882;9.210;2022-07-09T14:28:06;0.90;;;0.70;;
46334;SDS011;32051;48.882;9.210;2022-07-09T14:30:32;0.95;;;0.60;;
46334;SDS011;32051;48.882;9.210;2022-07-09T14:32:58;6.30;;;0.80;;
46334;SDS011;32051;48.882;9.210;2022-07-09T14:35:25;0.90;;;0.68;;
46334;SDS011;32051;48.882;9.210;2022-07-09T14:37:51;0.63;;;0.63;;
46334;SDS011;32051;48.882;9.210;2022-07-09T14:40:18;2.30;;;0.70;;
46334;SDS011;32051;48.882;9.210;2022-07-09T14:42:44;0.85;;;0.70;;
46334;SDS011;32051;48.882;9.210;2022-07-09T14:45:09;2.60;;;0.73;;
46334;SDS011;32051;48.882;9.210;2022-07-09T14:47:36;0.75;;;0.60;;
46334;SDS011;32051;48.882;9.210;2022-07-09T14:50:03;0.60;;;0.45;;
46334;SDS011;32051;48.882;9.210;2022-07-09T14:52:29;1.05;;;0.80;;